sensor_id;sensor_type;location;lat;lon;timestamp;pressure;altitude;pressure_sealevel;temperature
77412;BMP280;66484;49.968;19.140;2024-01-06T16:26:08;96957.75;;;22.10
77412;BMP280;66484;49.968;19.140;2024-01-06T16:28:09;96966.94;;;21.98
77412;BMP280;66484;49.968;19.140;2024-01-06T16:30:12;96968.81;;;21.88
77412;BMP280;66484;49.968;19.140;2024-01-06T16:32:13;96973.22;;;21.83
77412;BMP280;66484;49.968;19.140;2024-01-06T16:34:15;96970.31;;;21.81
77412;BMP280;66484;49.968;19.140;2024-01-06T16:36:15;96967.09;;;21.99
77412;BMP280;66484;49.968;19.140;2024-01-06T16:38:16;96979.13;;;21.97
77412;BMP280;66484;49.968;19.140;2024-01-06T16:40:16;96976.59;;;21.91
77412;BMP280;66484;49.968;19.140;2024-01-06T16:46:00;96971.88;;;13.56
77412;BMP280;66484;49.968;19.140;2024-01-06T16:48:00;96990.25;;;9.63
77412;BMP280;66484;49.968;19.140;2024-01-06T16:50:01;96992.50;;;8.01
77412;BMP280;66484;49.968;19.140;2024-01-06T16:52:02;96998.94;;;6.94
77412;BMP280;66484;49.968;19.140;2024-01-06T16:54:03;97011.94;;;6.08
77412;BMP280;66484;49.968;19.140;2024-01-06T16:56:04;97009.88;;;5.62
77412;BMP280;66484;49.968;19.140;2024-01-06T16:58:05;97016.50;;;4.89
77412;BMP280;66484;49.968;19.140;2024-01-06T17:00:06;97010.72;;;4.82
77412;BMP280;66484;49.968;19.140;2024-01-06T17:02:09;97020.47;;;4.67
77412;BMP280;66484;49.968;19.140;2024-01-06T17:04:10;97020.44;;;4.40
77412;BMP280;66484;49.968;19.140;2024-01-06T17:06:13;97019.81;;;4.27
77412;BMP280;66484;49.968;19.140;2024-01-06T17:08:13;97026.88;;;4.13
77412;BMP280;66484;49.968;19.140;2024-01-06T17:10:15;97023.19;;;4.19
77412;BMP280;66484;49.968;19.140;2024-01-06T17:12:16;97023.31;;;3.76
77412;BMP280;66484;49.968;19.140;2024-01-06T17:14:17;97025.47;;;3.60
77412;BMP280;66484;49.968;19.140;2024-01-06T17:16:17;97029.03;;;3.96
77412;BMP280;66484;49.968;19.140;2024-01-06T17:18:18;97025.88;;;3.89
77412;BMP280;66484;49.968;19.140;2024-01-06T17:20:18;97035.31;;;3.81
77412;BMP280;66484;49.968;19.140;2024-01-06T17:22:20;97028.81;;;3.82
77412;BMP280;66484;49.968;19.140;2024-01-06T17:24:20;97032.06;;;3.86
77412;BMP280;66484;49.968;19.140;2024-01-06T17:26:21;97030.03;;;3.90
77412;BMP280;66484;49.968;19.140;2024-01-06T17:28:22;97033.75;;;3.71
77412;BMP280;66484;49.968;19.140;2024-01-06T17:30:23;97047.53;;;3.57
77412;BMP280;66484;49.968;19.140;2024-01-06T17:32:24;97034.97;;;3.79
77412;BMP280;66484;49.968;19.140;2024-01-06T17:34:24;97033.09;;;3.79
77412;BMP280;66484;49.968;19.140;2024-01-06T17:36:25;97042.75;;;3.43
77412;BMP280;66484;49.968;19.140;2024-01-06T17:38:26;97041.13;;;3.37
77412;BMP280;66484;49.968;19.140;2024-01-06T17:40:26;97037.59;;;3.40
77412;BMP280;66484;49.968;19.140;2024-01-06T17:42:27;97034.94;;;3.18
77412;BMP280;66484;49.968;19.140;2024-01-06T17:44:28;97041.53;;;3.14
77412;BMP280;66484;49.968;19.140;2024-01-06T17:46:30;97043.50;;;3.22
77412;BMP280;66484;49.968;19.140;2024-01-06T17:48:30;97045.88;;;3.20
77412;BMP280;66484;49.968;19.140;2024-01-06T17:50:31;97044.44;;;3.07
77412;BMP280;66484;49.968;19.140;2024-01-06T17:52:32;97044.72;;;3.09
77412;BMP280;66484;49.968;19.140;2024-01-06T17:54:32;97043.28;;;3.08
77412;BMP280;66484;49.968;19.140;2024-01-06T17:56:33;97044.53;;;3.04
77412;BMP280;66484;49.968;19.140;2024-01-06T17:58:33;97046.34;;;3.07
77412;BMP280;66484;49.968;19.140;2024-01-06T18:00:34;97047.31;;;3.21
77412;BMP280;66484;49.968;19.140;2024-01-06T18:02:35;97048.56;;;3.08
77412;BMP280;66484;49.968;19.140;2024-01-06T18:04:36;97045.13;;;2.99
77412;BMP280;66484;49.968;19.140;2024-01-06T18:06:36;97054.22;;;2.76
77412;BMP280;66484;49.968;19.140;2024-01-06T18:08:37;97050.50;;;2.74
77412;BMP280;66484;49.968;19.140;2024-01-06T18:10:38;97047.81;;;2.86
77412;BMP280;66484;49.968;19.140;2024-01-06T18:12:38;97051.44;;;2.80
77412;BMP280;66484;49.968;19.140;2024-01-06T18:14:41;97059.38;;;2.80
77412;BMP280;66484;49.968;19.140;2024-01-06T18:16:42;97064.38;;;2.78
77412;BMP280;66484;49.968;19.140;2024-01-06T18:18:42;97066.38;;;2.74
77412;BMP280;66484;49.968;19.140;2024-01-06T18:20:43;97059.22;;;2.62
77412;BMP280;66484;49.968;19.140;2024-01-06T18:22:44;97060.91;;;2.68
77412;BMP280;66484;49.968;19.140;2024-01-06T18:24:45;97052.47;;;2.82
77412;BMP280;66484;49.968;19.140;2024-01-06T18:26:45;97060.06;;;2.93
77412;BMP280;66484;49.968;19.140;2024-01-06T18:28:46;97060.13;;;3.02
77412;BMP280;66484;49.968;19.140;2024-01-06T18:30:47;97057.78;;;3.04
77412;BMP280;66484;49.968;19.140;2024-01-06T18:32:47;97069.50;;;3.15
77412;BMP280;66484;49.968;19.140;2024-01-06T18:34:48;97066.47;;;3.25
77412;BMP280;66484;49.968;19.140;2024-01-06T18:36:48;97069.56;;;3.24
77412;BMP280;66484;49.968;19.140;2024-01-06T18:38:49;97065.44;;;3.44
77412;BMP280;66484;49.968;19.140;2024-01-06T18:40:49;97065.81;;;3.13
77412;BMP280;66484;49.968;19.140;2024-01-06T18:42:50;97066.19;;;3.23
77412;BMP280;66484;49.968;19.140;2024-01-06T18:44:51;97069.38;;;3.18
77412;BMP280;66484;49.968;19.140;2024-01-06T18:46:52;97065.69;;;3.37
77412;BMP280;66484;49.968;19.140;2024-01-06T18:48:52;97062.59;;;3.39
77412;BMP280;66484;49.968;19.140;2024-01-06T18:50:53;97066.41;;;3.38
77412;BMP280;66484;49.968;19.140;2024-01-06T18:52:53;97065.72;;;3.46
77412;BMP280;66484;49.968;19.140;2024-01-06T18:54:54;97063.88;;;3.56
77412;BMP280;66484;49.968;19.140;2024-01-06T18:56:54;97058.22;;;3.45
77412;BMP280;66484;49.968;19.140;2024-01-06T18:58:55;97066.38;;;3.29
77412;BMP280;66484;49.968;19.140;2024-01-06T19:00:56;97060.19;;;3.32
77412;BMP280;66484;49.968;19.140;2024-01-06T19:02:57;97066.31;;;3.41
77412;BMP280;66484;49.968;19.140;2024-01-06T19:04:58;97062.03;;;3.22
77412;BMP280;66484;49.968;19.140;2024-01-06T19:06:59;97066.91;;;3.24
77412;BMP280;66484;49.968;19.140;2024-01-06T19:08:59;97072.97;;;3.24
77412;BMP280;66484;49.968;19.140;2024-01-06T19:11:00;97067.47;;;3.40
77412;BMP280;66484;49.968;19.140;2024-01-06T19:13:01;97067.78;;;3.42
77412;BMP280;66484;49.968;19.140;2024-01-06T19:15:01;97073.09;;;3.42
77412;BMP280;66484;49.968;19.140;2024-01-06T19:17:02;97075.97;;;3.14
77412;BMP280;66484;49.968;19.140;2024-01-06T19:19:03;97074.72;;;2.85
77412;BMP280;66484;49.968;19.140;2024-01-06T19:21:04;97073.59;;;2.61
77412;BMP280;66484;49.968;19.140;2024-01-06T19:23:07;97076.63;;;2.38
77412;BMP280;66484;49.968;19.140;2024-01-06T19:25:08;97080.31;;;2.53
77412;BMP280;66484;49.968;19.140;2024-01-06T19:27:09;97078.59;;;2.59
77412;BMP280;66484;49.968;19.140;2024-01-06T19:29:10;97079.28;;;2.72
77412;BMP280;66484;49.968;19.140;2024-01-06T19:31:10;97077.84;;;2.71
77412;BMP280;66484;49.968;19.140;2024-01-06T19:33:11;97079.97;;;2.51
77412;BMP280;66484;49.968;19.140;2024-01-06T19:35:11;97082.00;;;2.47
77412;BMP280;66484;49.968;19.140;2024-01-06T19:37:12;97087.91;;;2.51
77412;BMP280;66484;49.968;19.140;2024-01-06T19:39:12;97085.84;;;2.34
77412;BMP280;66484;49.968;19.140;2024-01-06T19:41:13;97078.34;;;2.32
77412;BMP280;66484;49.968;19.140;2024-01-06T19:43:14;97079.28;;;2.13
77412;BMP280;66484;49.968;19.140;2024-01-06T19:45:16;97095.16;;;2.13
77412;BMP280;66484;49.968;19.140;2024-01-06T19:47:17;97079.50;;;2.19
77412;BMP280;66484;49.968;19.140;2024-01-06T19:49:18;97077.38;;;2.26
77412;BMP280;66484;49.968;19.140;2024-01-06T19:51:18;97082.88;;;2.07
77412;BMP280;66484;49.968;19.140;2024-01-06T19:53:19;97087.13;;;2.05
77412;BMP280;66484;49.968;19.140;2024-01-06T19:55:20;97078.44;;;1.79
77412;BMP280;66484;49.968;19.140;2024-01-06T19:57:20;97095.25;;;1.98
77412;BMP280;66484;49.968;19.140;2024-01-06T19:59:21;97086.38;;;2.04
77412;BMP280;66484;49.968;19.140;2024-01-06T20:01:21;97089.66;;;1.96
77412;BMP280;66484;49.968;19.140;2024-01-06T20:03:22;97087.13;;;1.92
77412;BMP280;66484;49.968;19.140;2024-01-06T20:05:23;97088.91;;;1.83
77412;BMP280;66484;49.968;19.140;2024-01-06T20:07:24;97090.19;;;1.91
77412;BMP280;66484;49.968;19.140;2024-01-06T20:09:29;97093.44;;;1.82
77412;BMP280;66484;49.968;19.140;2024-01-06T20:11:29;97097.69;;;1.80
77412;BMP280;66484;49.968;19.140;2024-01-06T20:13:30;97093.38;;;1.86
77412;BMP280;66484;49.968;19.140;2024-01-06T20:15:31;97090.28;;;1.87
77412;BMP280;66484;49.968;19.140;2024-01-06T20:17:32;97093.94;;;1.65
77412;BMP280;66484;49.968;19.140;2024-01-06T20:19:33;97096.09;;;1.70
77412;BMP280;66484;49.968;19.140;2024-01-06T20:21:33;97102.22;;;1.67
77412;BMP280;66484;49.968;19.140;2024-01-06T20:23:34;97103.38;;;1.66
77412;BMP280;66484;49.968;19.140;2024-01-06T20:25:34;97098.72;;;1.58
77412;BMP280;66484;49.968;19.140;2024-01-06T20:27:37;97103.34;;;1.54
77412;BMP280;66484;49.968;19.140;2024-01-06T20:29:38;97093.34;;;1.61
77412;BMP280;66484;49.968;19.140;2024-01-06T20:31:39;97099.44;;;1.58
77412;BMP280;66484;49.968;19.140;2024-01-06T20:33:39;97093.53;;;1.54
77412;BMP280;66484;49.968;19.140;2024-01-06T20:35:42;97099.13;;;1.56
77412;BMP280;66484;49.968;19.140;2024-01-06T20:37:42;97090.56;;;1.52
77412;BMP280;66484;49.968;19.140;2024-01-06T20:39:43;97100.19;;;1.58
77412;BMP280;66484;49.968;19.140;2024-01-06T20:41:44;97098.94;;;1.63
77412;BMP280;66484;49.968;19.140;2024-01-06T20:43:44;97104.31;;;1.59
77412;BMP280;66484;49.968;19.140;2024-01-06T20:45:45;97095.00;;;1.55
77412;BMP280;66484;49.968;19.140;2024-01-06T20:47:47;97095.41;;;1.41
77412;BMP280;66484;49.968;19.140;2024-01-06T20:49:48;97095.41;;;1.54
77412;BMP280;66484;49.968;19.140;2024-01-06T20:51:51;97095.78;;;1.68
77412;BMP280;66484;49.968;19.140;2024-01-06T20:53:51;97099.22;;;1.53
77412;BMP280;66484;49.968;19.140;2024-01-06T20:55:52;97105.69;;;1.64
77412;BMP280;66484;49.968;19.140;2024-01-06T20:57:52;97092.81;;;1.78
77412;BMP280;66484;49.968;19.140;2024-01-06T20:59:53;97101.13;;;1.52
77412;BMP280;66484;49.968;19.140;2024-01-06T21:01:54;97100.28;;;1.55
77412;BMP280;66484;49.968;19.140;2024-01-06T21:03:54;97098.72;;;1.58
77412;BMP280;66484;49.968;19.140;2024-01-06T21:05:55;97101.03;;;1.56
77412;BMP280;66484;49.968;19.140;2024-01-06T21:07:56;97103.91;;;1.61
77412;BMP280;66484;49.968;19.140;2024-01-06T21:09:56;97093.13;;;1.68
77412;BMP280;66484;49.968;19.140;2024-01-06T21:11:58;97103.34;;;1.54
77412;BMP280;66484;49.968;19.140;2024-01-06T21:13:58;97103.16;;;1.60
77412;BMP280;66484;49.968;19.140;2024-01-06T21:16:02;97112.41;;;1.53
77412;BMP280;66484;49.968;19.140;2024-01-06T21:18:03;97103.66;;;1.43
77412;BMP280;66484;49.968;19.140;2024-01-06T21:20:04;97103.97;;;1.45
77412;BMP280;66484;49.968;19.140;2024-01-06T21:22:05;97100.47;;;1.48
77412;BMP280;66484;49.968;19.140;2024-01-06T21:24:06;97107.84;;;1.28
77412;BMP280;66484;49.968;19.140;2024-01-06T21:26:08;97108.75;;;1.22
77412;BMP280;66484;49.968;19.140;2024-01-06T21:28:08;97104.34;;;1.31
77412;BMP280;66484;49.968;19.140;2024-01-06T21:30:09;97114.78;;;1.22
77412;BMP280;66484;49.968;19.140;2024-01-06T21:32:10;97113.94;;;1.25
77412;BMP280;66484;49.968;19.140;2024-01-06T21:34:11;97107.91;;;1.25
77412;BMP280;66484;49.968;19.140;2024-01-06T21:36:11;97117.75;;;1.24
77412;BMP280;66484;49.968;19.140;2024-01-06T21:38:14;97120.34;;;1.12
77412;BMP280;66484;49.968;19.140;2024-01-06T21:40:15;97116.13;;;1.14
77412;BMP280;66484;49.968;19.140;2024-01-06T21:42:16;97119.09;;;1.16
77412;BMP280;66484;49.968;19.140;2024-01-06T21:44:16;97114.94;;;1.15
77412;BMP280;66484;49.968;19.140;2024-01-06T21:46:19;97114.13;;;1.18
77412;BMP280;66484;49.968;19.140;2024-01-06T21:48:21;97119.88;;;1.29
77412;BMP280;66484;49.968;19.140;2024-01-06T21:50:21;97116.13;;;1.14
77412;BMP280;66484;49.968;19.140;2024-01-06T21:52:22;97116.72;;;1.06
77412;BMP280;66484;49.968;19.140;2024-01-06T21:54:28;97109.66;;;1.15
77412;BMP280;66484;49.968;19.140;2024-01-06T21:56:28;97117.09;;;1.20
77412;BMP280;66484;49.968;19.140;2024-01-06T21:58:29;97113.22;;;0.97
77412;BMP280;66484;49.968;19.140;2024-01-06T22:00:30;97115.25;;;0.89
77412;BMP280;66484;49.968;19.140;2024-01-06T22:02:30;97126.25;;;0.88
77412;BMP280;66484;49.968;19.140;2024-01-06T22:04:31;97125.81;;;0.89
77412;BMP280;66484;49.968;19.140;2024-01-06T22:06:32;97117.31;;;0.98
77412;BMP280;66484;49.968;19.140;2024-01-06T22:08:33;97113.84;;;1.01
77412;BMP280;66484;49.968;19.140;2024-01-06T22:10:33;97117.53;;;1.03
77412;BMP280;66484;49.968;19.140;2024-01-06T22:12:34;97116.25;;;1.23
77412;BMP280;66484;49.968;19.140;2024-01-06T22:14:35;97119.91;;;1.13
77412;BMP280;66484;49.968;19.140;2024-01-06T22:16:36;97119.78;;;1.05
77412;BMP280;66484;49.968;19.140;2024-01-06T22:18:36;97128.38;;;0.93
77412;BMP280;66484;49.968;19.140;2024-01-06T22:20:37;97123.94;;;0.90
77412;BMP280;66484;49.968;19.140;2024-01-06T22:22:38;97122.31;;;0.80
77412;BMP280;66484;49.968;19.140;2024-01-06T22:24:39;97129.28;;;0.86
77412;BMP280;66484;49.968;19.140;2024-01-06T22:26:41;97121.53;;;0.95
77412;BMP280;66484;49.968;19.140;2024-01-06T22:28:42;97125.59;;;0.84
77412;BMP280;66484;49.968;19.140;2024-01-06T22:30:43;97118.03;;;0.70
77412;BMP280;66484;49.968;19.140;2024-01-06T22:32:43;97124.94;;;0.80
77412;BMP280;66484;49.968;19.140;2024-01-06T22:34:47;97124.25;;;0.92
77412;BMP280;66484;49.968;19.140;2024-01-06T22:36:47;97121.53;;;0.95
77412;BMP280;66484;49.968;19.140;2024-01-06T22:38:49;97119.13;;;1.01
77412;BMP280;66484;49.968;19.140;2024-01-06T22:40:50;97125.63;;;0.96
77412;BMP280;66484;49.968;19.140;2024-01-06T22:42:50;97125.22;;;0.98
77412;BMP280;66484;49.968;19.140;2024-01-06T22:44:51;97117.72;;;0.96
77412;BMP280;66484;49.968;19.140;2024-01-06T22:46:51;97121.00;;;1.00
77412;BMP280;66484;49.968;19.140;2024-01-06T22:48:52;97121.97;;;0.78
77412;BMP280;66484;49.968;19.140;2024-01-06T22:50:53;97130.16;;;0.52
77412;BMP280;66484;49.968;19.140;2024-01-06T22:52:53;97133.69;;;0.45
77412;BMP280;66484;49.968;19.140;2024-01-06T22:54:54;97126.94;;;0.60
77412;BMP280;66484;49.968;19.140;2024-01-06T22:56:55;97138.63;;;0.75
77412;BMP280;66484;49.968;19.140;2024-01-06T22:58:58;97138.63;;;0.59
77412;BMP280;66484;49.968;19.140;2024-01-06T23:00:59;97138.81;;;0.52
77412;BMP280;66484;49.968;19.140;2024-01-06T23:03:00;97139.16;;;0.54
77412;BMP280;66484;49.968;19.140;2024-01-06T23:05:03;97134.19;;;0.56
77412;BMP280;66484;49.968;19.140;2024-01-06T23:07:05;97121.34;;;0.42
77412;BMP280;66484;49.968;19.140;2024-01-06T23:09:05;97135.03;;;0.37
77412;BMP280;66484;49.968;19.140;2024-01-06T23:11:09;97134.03;;;0.47
77412;BMP280;66484;49.968;19.140;2024-01-06T23:13:14;97131.72;;;0.49
77412;BMP280;66484;49.968;19.140;2024-01-06T23:15:15;97126.47;;;0.33
77412;BMP280;66484;49.968;19.140;2024-01-06T23:17:15;97129.81;;;0.34
77412;BMP280;66484;49.968;19.140;2024-01-06T23:19:16;97133.69;;;0.61
77412;BMP280;66484;49.968;19.140;2024-01-06T23:21:17;97132.38;;;0.53
77412;BMP280;66484;49.968;19.140;2024-01-06T23:23:17;97134.69;;;0.67
77412;BMP280;66484;49.968;19.140;2024-01-06T23:25:18;97135.75;;;0.69
77412;BMP280;66484;49.968;19.140;2024-01-06T23:27:19;97139.22;;;0.51
77412;BMP280;66484;49.968;19.140;2024-01-06T23:29:19;97134.44;;;0.61
77412;BMP280;66484;49.968;19.140;2024-01-06T23:31:20;97138.56;;;0.47
77412;BMP280;66484;49.968;19.140;2024-01-06T23:33:20;97132.38;;;0.53
77412;BMP280;66484;49.968;19.140;2024-01-06T23:35:21;97139.47;;;0.56
77412;BMP280;66484;49.968;19.140;2024-01-06T23:37:22;97139.47;;;0.72
77412;BMP280;66484;49.968;19.140;2024-01-06T23:39:23;97142.94;;;0.69
77412;BMP280;66484;49.968;19.140;2024-01-06T23:41:23;97134.28;;;0.37
77412;BMP280;66484;49.968;19.140;2024-01-06T23:43:24;97145.31;;;0.32
77412;BMP280;66484;49.968;19.140;2024-01-06T23:45:24;97145.22;;;0.19
77412;BMP280;66484;49.968;19.140;2024-01-06T23:47:25;97145.72;;;0.14
77412;BMP280;66484;49.968;19.140;2024-01-06T23:49:26;97145.88;;;0.07
77412;BMP280;66484;49.968;19.140;2024-01-06T23:51:27;97149.34;;;0.20
77412;BMP280;66484;49.968;19.140;2024-01-06T23:53:28;97155.25;;;0.08
77412;BMP280;66484;49.968;19.140;2024-01-06T23:55:29;97146.75;;;0.01
77412;BMP280;66484;49.968;19.140;2024-01-06T23:57:30;97152.28;;;0.06
77412;BMP280;66484;49.968;19.140;2024-01-06T23:59:30;97150.78;;;0.05
